createdAt,value
2018-03-08T00:02:22.735Z,99052.27
2018-03-08T00:04:48.787Z,99053.14
2018-03-08T00:07:14.938Z,99053.91
2018-03-08T00:09:41.082Z,99058.03
2018-03-08T00:12:07.195Z,99060.50
2018-03-08T00:14:33.412Z,99059.54
2018-03-08T00:16:59.467Z,99054.09
2018-03-08T00:19:25.577Z,99059.20
2018-03-08T00:21:51.633Z,99055.75
2018-03-08T00:24:17.672Z,99067.47
2018-03-08T00:26:43.899Z,99062.39
2018-03-08T00:29:09.993Z,99059.33
2018-03-08T00:31:36.020Z,99057.79
2018-03-08T00:34:02.088Z,99061.74
2018-03-08T00:36:28.157Z,99065.63
2018-03-08T00:38:54.202Z,99069.11
2018-03-08T00:41:20.284Z,99068.36
2018-03-08T00:43:46.314Z,99071.02
2018-03-08T00:46:12.407Z,99064.94
2018-03-08T00:48:38.654Z,99068.83
2018-03-08T00:51:04.710Z,99073.17
2018-03-08T00:53:30.776Z,99065.80
2018-03-08T00:55:56.809Z,99070.64
2018-03-08T00:58:22.871Z,99075.83
2018-03-08T01:00:48.988Z,99070.22
2018-03-08T01:03:15.104Z,99079.55
2018-03-08T01:05:41.179Z,99077.49
2018-03-08T01:08:07.255Z,99073.17
2018-03-08T01:10:33.399Z,99075.30
2018-03-08T01:12:59.494Z,99078.27
2018-03-08T01:15:25.580Z,99075.21
2018-03-08T01:17:51.927Z,99078.11
2018-03-08T01:20:18.037Z,99079.22
2018-03-08T01:22:44.101Z,99075.55
2018-03-08T01:25:10.165Z,99076.48
2018-03-08T01:27:36.255Z,99077.58
2018-03-08T01:30:02.305Z,99075.85
2018-03-08T01:32:28.334Z,99079.09
2018-03-08T01:34:54.373Z,99078.86
2018-03-08T01:40:13.579Z,99080.59
2018-03-08T01:42:39.659Z,99075.70
2018-03-08T01:45:05.739Z,99080.69
2018-03-08T01:47:31.744Z,99078.75
2018-03-08T01:49:57.803Z,99078.95
2018-03-08T01:52:23.857Z,99074.16
2018-03-08T01:54:50.061Z,99079.41
2018-03-08T01:57:16.128Z,99071.95
2018-03-08T01:59:42.223Z,99078.64
2018-03-08T02:02:08.307Z,99074.80
2018-03-08T02:04:34.336Z,99077.22
2018-03-08T02:07:00.403Z,99068.03
2018-03-08T02:09:26.477Z,99071.95
2018-03-08T02:11:52.559Z,99063.55
2018-03-08T02:14:18.708Z,99071.52
2018-03-08T02:16:45.460Z,99066.89
2018-03-08T02:19:11.508Z,99075.80
2018-03-08T02:21:37.538Z,99067.81
2018-03-08T02:24:04.020Z,99075.02
2018-03-08T02:26:30.099Z,99074.86
2018-03-08T02:28:56.205Z,99068.73
2018-03-08T02:31:22.306Z,99073.53
2018-03-08T02:33:48.360Z,99078.21
2018-03-08T02:36:14.392Z,99085.45
2018-03-08T02:38:40.453Z,99082.78
2018-03-08T02:41:06.554Z,99084.39
2018-03-08T02:43:32.612Z,99085.69
2018-03-08T02:45:58.739Z,99094.19
2018-03-08T02:48:24.804Z,99088.88
2018-03-08T02:50:50.874Z,99089.27
2018-03-08T02:53:16.984Z,99092.23
2018-03-08T02:55:43.065Z,99092.70
2018-03-08T02:58:09.121Z,99095.61
2018-03-08T03:00:35.235Z,99085.92
2018-03-08T03:03:01.278Z,99098.01
2018-03-08T03:05:27.356Z,99100.17
2018-03-08T03:07:53.475Z,99101.98
2018-03-08T03:10:19.504Z,99101.08
2018-03-08T03:12:45.954Z,99100.33
2018-03-08T03:15:12.011Z,99102.53
2018-03-08T03:17:38.043Z,99102.61
2018-03-08T03:20:04.093Z,99104.07
2018-03-08T03:22:30.817Z,99107.61
2018-03-08T03:24:56.892Z,99103.28
2018-03-08T03:27:22.920Z,99110.21
2018-03-08T03:29:48.965Z,99106.36
2018-03-08T03:32:14.997Z,99112.84
2018-03-08T03:34:41.113Z,99111.16
2018-03-08T03:37:07.172Z,99112.41
2018-03-08T03:39:33.224Z,99115.48
2018-03-08T03:41:59.498Z,99118.95
2018-03-08T03:44:25.549Z,99119.41
2018-03-08T03:46:51.584Z,99119.84
2018-03-08T03:49:17.641Z,99120.32
2018-03-08T03:51:43.703Z,99125.52
2018-03-08T03:54:09.769Z,99121.19
2018-03-08T03:56:35.848Z,99124.69
2018-03-08T03:59:01.905Z,99128.15
2018-03-08T04:01:27.968Z,99131.58
2018-03-08T04:03:54.497Z,99124.30
2018-03-08T04:06:20.582Z,99129.92
2018-03-08T04:08:46.611Z,99138.58
2018-03-08T04:11:13.317Z,99137.75
2018-03-08T04:13:39.375Z,99145.65
2018-03-08T04:16:05.467Z,99142.19
2018-03-08T04:18:31.469Z,99146.05
2018-03-08T04:20:57.515Z,99153.44
2018-03-08T04:23:23.585Z,99158.20
2018-03-08T04:25:49.736Z,99158.67
2018-03-08T04:28:15.788Z,99157.41
2018-03-08T04:30:41.844Z,99161.73
2018-03-08T04:33:07.928Z,99166.06
2018-03-08T04:35:33.980Z,99166.47
2018-03-08T04:38:00.136Z,99171.70
2018-03-08T04:40:26.187Z,99181.17
2018-03-08T04:42:52.474Z,99173.39
2018-03-08T04:45:18.534Z,99181.64
2018-03-08T04:47:44.580Z,99186.41
2018-03-08T04:50:10.763Z,99190.41
2018-03-08T04:52:37.207Z,99188.32
2018-03-08T04:55:03.304Z,99196.54
2018-03-08T04:57:29.338Z,99197.16
2018-03-08T04:59:55.397Z,99199.89
2018-03-08T05:02:22.583Z,99198.19
2018-03-08T05:04:48.671Z,99202.63
2018-03-08T05:07:14.843Z,99210.95
2018-03-08T05:09:40.965Z,99220.64
2018-03-08T05:12:07.066Z,99213.48
2018-03-08T05:14:33.126Z,99219.14
2018-03-08T05:16:59.232Z,99224.86
2018-03-08T05:19:25.272Z,99224.56
2018-03-08T05:21:51.335Z,99232.61
2018-03-08T05:24:17.380Z,99235.30
2018-03-08T05:26:43.450Z,99240.52
2018-03-08T05:29:09.507Z,99252.01
2018-03-08T05:31:35.584Z,99252.38
2018-03-08T05:34:01.650Z,99258.52
2018-03-08T05:36:27.734Z,99270.94
2018-03-08T05:38:53.900Z,99268.28
2018-03-08T05:41:19.951Z,99269.27
2018-03-08T05:43:46.004Z,99280.72
2018-03-08T05:46:12.042Z,99283.77
2018-03-08T05:48:38.162Z,99294.29
2018-03-08T05:51:04.330Z,99294.34
2018-03-08T05:53:30.417Z,99303.80
2018-03-08T05:55:56.482Z,99309.81
2018-03-08T05:58:22.543Z,99322.27
2018-03-08T06:00:48.645Z,99342.72
2018-03-08T06:03:14.778Z,99320.18
2018-03-08T06:05:40.854Z,99320.78
2018-03-08T06:08:06.975Z,99327.61
2018-03-08T06:10:33.063Z,99327.98
2018-03-08T06:12:59.125Z,99331.91
2018-03-08T06:15:25.182Z,99332.73
2018-03-08T06:17:51.260Z,99332.76
2018-03-08T06:20:17.316Z,99331.32
2018-03-08T06:22:43.393Z,99337.31
2018-03-08T06:25:09.459Z,99337.27
2018-03-08T06:27:35.526Z,99332.95
2018-03-08T06:30:01.982Z,99342.31
2018-03-08T06:32:28.082Z,99338.84
2018-03-08T06:34:54.204Z,99338.31
2018-03-08T06:37:20.337Z,99352.56
2018-03-08T06:39:46.399Z,99353.27
2018-03-08T06:42:12.644Z,99357.50
2018-03-08T06:44:38.732Z,99357.38
2018-03-08T06:47:04.825Z,99362.94
2018-03-08T06:49:30.911Z,99360.27
2018-03-08T06:51:57.010Z,99361.87
2018-03-08T06:54:23.101Z,99366.98
2018-03-08T06:56:49.173Z,99360.41
2018-03-08T06:59:15.235Z,99373.70
2018-03-08T07:01:41.313Z,99358.88
2018-03-08T07:04:07.372Z,99361.77
2018-03-08T07:06:33.434Z,99365.14
2018-03-08T07:08:59.486Z,99362.86
2018-03-08T07:11:25.584Z,99369.29
2018-03-08T07:13:51.670Z,99376.09
2018-03-08T07:16:17.726Z,99367.73
2018-03-08T07:18:43.790Z,99378.48
2018-03-08T07:21:09.863Z,99382.27
2018-03-08T07:23:35.919Z,99376.03
2018-03-08T07:26:02.020Z,99378.51
2018-03-08T07:28:28.145Z,99381.39
2018-03-08T07:30:54.164Z,99385.59
2018-03-08T07:33:20.205Z,99376.83
2018-03-08T07:35:46.306Z,99380.12
2018-03-08T07:38:12.383Z,99387.33
2018-03-08T07:40:38.446Z,99397.63
2018-03-08T07:43:04.623Z,99398.36
2018-03-08T07:45:30.755Z,99400.44
2018-03-08T07:47:56.809Z,99392.98
2018-03-08T07:50:22.903Z,99396.41
2018-03-08T07:52:48.985Z,99398.02
2018-03-08T07:55:15.096Z,99401.38
2018-03-08T07:57:41.164Z,99406.55
2018-03-08T08:00:07.214Z,99409.05
2018-03-08T08:02:33.305Z,99415.08
2018-03-08T08:08:11.799Z,99424.07
2018-03-08T08:10:37.859Z,99420.55
2018-03-08T08:13:04.257Z,99419.08
2018-03-08T08:15:30.318Z,99419.69
2018-03-08T08:17:56.364Z,99428.64
2018-03-08T08:20:22.455Z,99425.15
2018-03-08T08:22:48.666Z,99433.78
2018-03-08T08:25:14.708Z,99424.52
2018-03-08T08:27:40.972Z,99438.14
2018-03-08T08:30:07.038Z,99426.80
2018-03-08T08:32:33.073Z,99421.97
2018-03-08T08:34:59.130Z,99428.66
2018-03-08T08:37:25.161Z,99426.45
2018-03-08T08:39:51.317Z,99424.55
2018-03-08T08:42:17.387Z,99430.94
2018-03-08T08:44:43.442Z,99425.99
2018-03-08T08:47:09.534Z,99434.81
2018-03-08T08:49:35.703Z,99436.83
2018-03-08T08:52:01.718Z,99434.84
2018-03-08T08:54:27.743Z,99449.08
2018-03-08T08:56:53.954Z,99470.25
2018-03-08T08:59:20.005Z,99455.87
2018-03-08T09:01:46.072Z,99444.91
2018-03-08T09:04:12.133Z,99449.53
2018-03-08T09:06:38.200Z,99464.02
2018-03-08T09:09:04.488Z,99458.73
2018-03-08T09:11:30.601Z,99438.66
2018-03-08T09:13:56.654Z,99485.28
2018-03-08T09:16:22.752Z,99461.81
2018-03-08T09:18:48.942Z,99463.08
2018-03-08T09:21:14.972Z,99472.70
2018-03-08T09:23:41.059Z,99467.13
2018-03-08T09:26:07.130Z,99473.88
2018-03-08T09:28:33.215Z,99468.84
2018-03-08T09:30:59.381Z,99453.58
2018-03-08T09:33:25.431Z,99467.83
2018-03-08T09:35:51.703Z,99460.80
2018-03-08T09:38:17.772Z,99452.98
2018-03-08T09:40:43.855Z,99458.52
2018-03-08T09:43:09.906Z,99458.55
2018-03-08T09:45:36.093Z,99454.89
2018-03-08T09:48:02.195Z,99460.29
2018-03-08T09:50:28.230Z,99449.75
2018-03-08T09:52:54.437Z,99452.44
2018-03-08T09:55:20.670Z,99463.95
2018-03-08T09:57:46.780Z,99463.87
2018-03-08T10:00:12.858Z,99454.36
2018-03-08T10:02:38.970Z,99462.84
2018-03-08T10:05:05.169Z,99456.11
2018-03-08T10:07:31.208Z,99455.68
2018-03-08T10:09:57.314Z,99454.46
2018-03-08T10:12:23.366Z,99465.72
2018-03-08T10:14:49.625Z,99465.91
2018-03-08T10:17:15.698Z,99458.34
2018-03-08T10:19:41.748Z,99455.78
2018-03-08T10:22:07.924Z,99456.05
2018-03-08T10:24:33.968Z,99456.95
2018-03-08T10:27:00.033Z,99468.55
2018-03-08T10:29:26.075Z,99475.13
2018-03-08T10:31:52.152Z,99462.95
2018-03-08T10:34:18.153Z,99467.95
2018-03-08T10:36:44.276Z,99473.78
2018-03-08T10:44:02.643Z,99469.05
2018-03-08T10:46:28.851Z,99464.86
2018-03-08T10:51:21.065Z,99464.28
2018-03-08T10:53:47.250Z,99462.30
2018-03-08T10:56:13.300Z,99467.68
2018-03-08T10:58:39.328Z,99462.22
2018-03-08T11:01:05.597Z,99465.91
2018-03-08T11:03:47.762Z,99463.78
2018-03-08T11:06:19.816Z,99454.58
2018-03-08T11:08:45.864Z,99456.84
2018-03-08T11:11:12.055Z,99452.95
2018-03-08T11:13:38.124Z,99446.91
2018-03-08T11:16:04.189Z,99444.80
2018-03-08T11:18:30.350Z,99434.86
2018-03-08T11:20:56.420Z,99434.64
2018-03-08T11:23:22.521Z,99436.75
2018-03-08T11:25:48.588Z,99428.63
2018-03-08T11:28:14.652Z,99425.24
2018-03-08T11:30:40.746Z,99423.22
2018-03-08T11:33:06.784Z,99418.44
2018-03-08T11:35:32.959Z,99421.31
2018-03-08T11:37:59.190Z,99414.72
2018-03-08T11:40:25.249Z,99415.00
2018-03-08T11:42:51.545Z,99418.97
2018-03-08T11:45:17.624Z,99405.27
2018-03-08T11:47:43.722Z,99408.08
2018-03-08T11:50:09.872Z,99394.64
2018-03-08T11:52:35.958Z,99399.19
2018-03-08T11:55:02.032Z,99392.14
2018-03-08T11:57:28.180Z,99400.42
2018-03-08T11:59:54.243Z,99399.84
2018-03-08T12:02:20.297Z,99397.70
2018-03-08T12:04:46.430Z,99394.93
2018-03-08T12:07:12.510Z,99394.30
2018-03-08T12:09:38.557Z,99390.25
2018-03-08T12:12:04.660Z,99394.30
2018-03-08T12:14:30.772Z,99395.17
2018-03-08T12:16:56.935Z,99397.48
2018-03-08T12:19:22.976Z,99389.79
2018-03-08T12:21:49.240Z,99384.53
2018-03-08T12:24:15.317Z,99384.93
2018-03-08T12:26:41.387Z,99372.80
2018-03-08T12:29:07.530Z,99384.39
2018-03-08T12:31:33.625Z,99385.92
2018-03-08T12:33:59.690Z,99385.81
2018-03-08T12:36:25.781Z,99387.18
2018-03-08T12:38:51.843Z,99382.14
2018-03-08T12:41:17.980Z,99389.59
2018-03-08T12:43:44.046Z,99369.13
2018-03-08T12:46:10.147Z,99372.28
2018-03-08T12:48:36.310Z,99364.16
2018-03-08T12:51:02.363Z,99370.05
2018-03-08T12:53:28.403Z,99356.83
2018-03-08T12:55:54.438Z,99361.37
2018-03-08T12:58:20.691Z,99352.63
2018-03-08T13:00:47.038Z,99346.64
2018-03-08T13:03:13.126Z,99350.89
2018-03-08T13:05:39.184Z,99345.94
2018-03-08T13:08:05.307Z,99354.32
2018-03-08T13:10:31.407Z,99342.55
2018-03-08T13:12:58.871Z,99345.23
2018-03-08T13:15:25.183Z,99342.70
2018-03-08T13:17:51.260Z,99351.17
2018-03-08T13:20:17.353Z,99346.50
2018-03-08T13:22:43.462Z,99346.61
2018-03-08T13:25:09.727Z,99344.94
2018-03-08T13:27:35.790Z,99339.31
2018-03-08T13:30:02.748Z,99339.11
2018-03-08T13:32:29.004Z,99345.53
2018-03-08T13:34:55.119Z,99343.56
2018-03-08T13:37:21.255Z,99345.25
2018-03-08T13:39:47.535Z,99338.77
2018-03-08T13:42:13.654Z,99331.11
2018-03-08T13:44:39.706Z,99346.64
2018-03-08T13:47:06.236Z,99343.59
2018-03-08T13:49:36.324Z,99332.86
2018-03-08T13:52:02.408Z,99343.39
2018-03-08T13:54:28.470Z,99337.53
2018-03-08T13:56:54.516Z,99334.90
2018-03-08T13:59:20.605Z,99338.39
2018-03-08T14:01:46.716Z,99322.96
2018-03-08T14:04:12.767Z,99318.44
2018-03-08T14:06:38.899Z,99323.27
2018-03-08T14:09:06.228Z,99317.42
2018-03-08T14:11:33.822Z,99321.39
2018-03-08T14:14:00.557Z,99308.23
2018-03-08T14:16:27.572Z,99305.25
2018-03-08T14:18:53.642Z,99312.11
2018-03-08T14:21:19.695Z,99308.50
2018-03-08T14:23:45.916Z,99305.02
2018-03-08T14:26:11.963Z,99302.83
2018-03-08T14:28:38.879Z,99304.28
2018-03-08T14:31:04.914Z,99300.15
2018-03-08T14:33:31.906Z,99295.47
2018-03-08T14:35:58.540Z,99289.79
2018-03-08T14:38:24.720Z,99277.98
2018-03-08T14:40:50.873Z,99275.36
2018-03-08T14:43:16.920Z,99272.71
2018-03-08T14:45:42.996Z,99274.21
2018-03-08T14:48:09.083Z,99271.59
2018-03-08T14:50:35.267Z,99260.94
2018-03-08T14:53:01.373Z,99253.44
2018-03-08T14:55:27.473Z,99256.70
2018-03-08T14:57:53.575Z,99257.05
2018-03-08T15:00:19.847Z,99253.47
2018-03-08T15:02:45.980Z,99253.79
2018-03-08T15:05:12.172Z,99253.94
2018-03-08T15:07:38.373Z,99245.13
2018-03-08T15:10:04.432Z,99236.78
2018-03-08T15:12:30.772Z,99240.16
2018-03-08T15:14:56.835Z,99239.83
2018-03-08T15:17:23.133Z,99235.96
2018-03-08T15:19:49.223Z,99240.63
2018-03-08T15:22:15.327Z,99236.77
2018-03-08T15:24:41.513Z,99225.30
2018-03-08T15:27:07.692Z,99223.52
2018-03-08T15:29:33.943Z,99222.80
2018-03-08T15:32:00.057Z,99229.34
2018-03-08T15:34:26.111Z,99216.07
2018-03-08T15:36:52.213Z,99209.39
2018-03-08T15:39:18.288Z,99231.31
2018-03-08T15:41:45.295Z,99220.22
2018-03-08T15:44:11.407Z,99217.11
2018-03-08T15:46:38.062Z,99218.59
2018-03-08T15:49:05.102Z,99211.67
2018-03-08T15:51:31.178Z,99211.73
2018-03-08T15:53:57.247Z,99208.75
2018-03-08T15:56:23.391Z,99209.42
2018-03-08T15:58:49.541Z,99206.42
2018-03-08T16:01:15.811Z,99206.71
2018-03-08T16:03:41.843Z,99209.33
2018-03-08T16:06:08.518Z,99208.41
2018-03-08T16:08:46.991Z,99203.23
2018-03-08T16:11:13.015Z,99200.84
2018-03-08T16:13:39.795Z,99196.18
2018-03-08T16:16:05.914Z,99195.35
2018-03-08T16:18:31.955Z,99194.17
2018-03-08T16:20:58.035Z,99198.71
2018-03-08T16:23:24.114Z,99200.99
2018-03-08T16:25:50.165Z,99209.44
2018-03-08T16:28:16.240Z,99203.34
2018-03-08T16:30:42.322Z,99201.16
2018-03-08T16:33:08.598Z,99197.41
2018-03-08T16:35:34.790Z,99205.31
2018-03-08T16:38:00.921Z,99201.50
2018-03-08T16:40:27.168Z,99201.64
2018-03-08T16:42:53.227Z,99204.03
2018-03-08T16:45:19.415Z,99203.39
2018-03-08T16:47:45.546Z,99192.45
2018-03-08T16:50:11.600Z,99198.30
2018-03-08T16:52:37.759Z,99204.16
2018-03-08T16:55:03.864Z,99213.48
2018-03-08T16:57:30.081Z,99209.20
2018-03-08T16:59:56.127Z,99200.65
2018-03-08T17:02:22.150Z,99203.42
2018-03-08T17:04:48.336Z,99204.84
2018-03-08T17:07:14.533Z,99201.15
2018-03-08T17:09:40.602Z,99196.50
2018-03-08T17:12:06.685Z,99193.95
2018-03-08T17:14:32.995Z,99187.04
2018-03-08T17:16:59.048Z,99184.44
2018-03-08T17:19:25.288Z,99177.31
2018-03-08T17:21:51.418Z,99176.92
2018-03-08T17:24:18.516Z,99172.79
2018-03-08T17:26:44.577Z,99173.27
2018-03-08T17:29:10.756Z,99169.61
2018-03-08T17:31:36.817Z,99173.33
2018-03-08T17:34:05.107Z,99179.56
2018-03-08T17:36:31.227Z,99178.53
2018-03-08T17:38:57.314Z,99163.02
2018-03-08T17:41:23.543Z,99170.86
2018-03-08T17:43:49.695Z,99174.01
2018-03-08T17:46:15.813Z,99179.33
2018-03-08T17:48:41.910Z,99168.46
2018-03-08T17:51:08.042Z,99170.23
2018-03-08T17:53:35.037Z,99166.53
2018-03-08T17:56:01.170Z,99174.79
2018-03-08T17:58:27.391Z,99172.19
2018-03-08T18:00:53.535Z,99178.87
2018-03-08T18:03:19.653Z,99174.95
2018-03-08T18:05:45.730Z,99168.15
2018-03-08T18:08:11.829Z,99157.38
2018-03-08T18:10:37.978Z,99164.39
2018-03-08T18:13:04.579Z,99165.30
2018-03-08T18:15:30.666Z,99169.74
2018-03-08T18:17:57.486Z,99168.94
2018-03-08T18:20:23.558Z,99171.55
2018-03-08T18:22:49.662Z,99174.69
2018-03-08T18:25:15.856Z,99163.38
2018-03-08T18:27:41.939Z,99162.75
2018-03-08T18:30:08.376Z,99154.61
2018-03-08T18:32:34.494Z,99161.51
2018-03-08T18:35:00.609Z,99159.38
2018-03-08T18:37:27.543Z,99156.35
2018-03-08T18:39:55.056Z,99152.11
2018-03-08T18:42:21.156Z,99142.64
2018-03-08T18:44:47.338Z,99153.21
2018-03-08T18:47:13.495Z,99150.66
2018-03-08T18:49:39.628Z,99150.32
2018-03-08T18:52:05.904Z,99134.77
2018-03-08T18:54:33.017Z,99110.13
2018-03-08T18:56:59.455Z,99094.14
2018-03-08T18:59:25.614Z,99083.34
2018-03-08T19:01:51.775Z,99100.33
2018-03-08T19:04:17.846Z,99112.97
2018-03-08T19:06:44.246Z,99128.18
2018-03-08T19:09:11.101Z,99144.50
2018-03-08T19:11:37.261Z,99185.27
2018-03-08T19:14:03.454Z,99188.22
2018-03-08T19:16:29.636Z,99180.89
2018-03-08T19:18:55.733Z,99171.03
2018-03-08T19:21:22.011Z,99171.61
2018-03-08T19:23:48.098Z,99186.48
2018-03-08T19:26:14.588Z,99187.26
2018-03-08T19:28:40.740Z,99208.64
2018-03-08T19:31:06.974Z,99184.51
2018-03-08T19:33:33.411Z,99190.39
2018-03-08T19:36:00.438Z,99176.53
2018-03-08T19:38:27.090Z,99205.67
2018-03-08T19:40:53.259Z,99193.72
2018-03-08T19:43:19.803Z,99202.92
2018-03-08T19:45:51.453Z,99191.33
2018-03-08T19:48:17.679Z,99182.80
2018-03-08T19:50:44.474Z,99205.41
2018-03-08T19:53:10.729Z,99207.86
2018-03-08T19:55:36.851Z,99205.44
2018-03-08T19:58:02.993Z,99208.31
2018-03-08T20:00:29.216Z,99210.05
2018-03-08T20:02:56.325Z,99207.02
2018-03-08T20:05:22.556Z,99211.19
2018-03-08T20:07:48.783Z,99220.73
2018-03-08T20:10:15.992Z,99214.80
2018-03-08T20:12:43.260Z,99222.68
2018-03-08T20:15:09.576Z,99231.84
2018-03-08T20:17:35.631Z,99237.58
2018-03-08T20:20:01.984Z,99242.30
2018-03-08T20:22:28.177Z,99241.80
2018-03-08T20:24:54.341Z,99242.20
2018-03-08T20:27:20.509Z,99248.56
2018-03-08T20:29:47.247Z,99245.73
2018-03-08T20:32:13.425Z,99251.45
2018-03-08T20:34:39.645Z,99246.28
2018-03-08T20:37:05.887Z,99257.69
2018-03-08T20:39:32.042Z,99259.16
2018-03-08T20:41:58.224Z,99262.34
2018-03-08T20:44:24.320Z,99268.09
2018-03-08T20:46:50.446Z,99273.97
2018-03-08T20:49:16.830Z,99265.34
2018-03-08T20:51:43.049Z,99264.70
2018-03-08T20:54:09.383Z,99278.66
2018-03-08T20:56:35.530Z,99273.92
2018-03-08T20:59:01.684Z,99274.94
2018-03-08T21:01:27.782Z,99260.64
2018-03-08T21:03:53.941Z,99267.58
2018-03-08T21:06:20.048Z,99274.70
2018-03-08T21:08:46.178Z,99270.55
2018-03-08T21:11:13.215Z,99272.04
2018-03-08T21:13:39.438Z,99266.48
2018-03-08T21:16:05.701Z,99266.98
2018-03-08T21:18:31.913Z,99266.12
2018-03-08T21:20:57.993Z,99284.35
2018-03-08T21:23:38.995Z,99277.96
2018-03-08T21:26:05.071Z,99283.59
2018-03-08T21:28:32.178Z,99282.33
2018-03-08T21:30:58.210Z,99293.55
2018-03-08T21:33:24.306Z,99301.09
2018-03-08T21:35:50.405Z,99301.50
2018-03-08T21:38:16.482Z,99306.07
2018-03-08T21:40:42.830Z,99312.20
2018-03-08T21:43:09.091Z,99317.40
2018-03-08T21:45:35.195Z,99316.20
2018-03-08T21:48:01.303Z,99309.78
2018-03-08T21:50:27.402Z,99306.13
2018-03-08T21:52:53.442Z,99292.80
2018-03-08T21:55:19.522Z,99282.05
2018-03-08T21:57:45.592Z,99296.44
2018-03-08T22:00:11.715Z,99295.21
2018-03-08T22:02:37.908Z,99290.52
2018-03-08T22:05:03.970Z,99301.14
2018-03-08T22:07:30.087Z,99309.02
2018-03-08T22:09:56.171Z,99308.16
2018-03-08T22:12:22.294Z,99316.14
2018-03-08T22:14:48.415Z,99313.20
2018-03-08T22:17:14.532Z,99319.27
2018-03-08T22:19:40.616Z,99315.83
2018-03-08T22:22:06.790Z,99319.27
2018-03-08T22:24:32.906Z,99325.28
2018-03-08T22:26:58.995Z,99322.87
2018-03-08T22:29:25.229Z,99321.27
2018-03-08T22:31:51.433Z,99326.22
2018-03-08T22:34:17.506Z,99326.62
2018-03-08T22:36:43.597Z,99339.22
2018-03-08T22:39:09.979Z,99341.69
2018-03-08T22:41:36.660Z,99335.20
2018-03-08T22:44:03.526Z,99340.18
2018-03-08T22:46:29.693Z,99336.22
2018-03-08T22:48:55.742Z,99338.73
2018-03-08T22:51:21.886Z,99343.36
2018-03-08T22:53:47.952Z,99339.84
2018-03-08T22:56:13.963Z,99352.22
2018-03-08T22:58:40.055Z,99347.89
2018-03-08T23:01:06.260Z,99350.55
2018-03-08T23:03:32.339Z,99337.11
2018-03-08T23:05:58.428Z,99340.05
2018-03-08T23:08:24.494Z,99342.61
2018-03-08T23:10:50.542Z,99346.00
2018-03-08T23:13:16.622Z,99346.06
2018-03-08T23:15:42.703Z,99340.78
2018-03-08T23:18:08.858Z,99342.02
2018-03-08T23:20:34.909Z,99346.31
2018-03-08T23:23:00.956Z,99355.63
2018-03-08T23:25:26.997Z,99350.94
2018-03-08T23:27:53.100Z,99362.63
2018-03-08T23:30:19.176Z,99357.30
2018-03-08T23:32:45.234Z,99361.59
2018-03-08T23:35:11.322Z,99360.16
2018-03-08T23:37:37.363Z,99359.63
2018-03-08T23:40:03.457Z,99355.67
2018-03-08T23:42:29.529Z,99379.25
2018-03-08T23:44:55.633Z,99358.66
2018-03-08T23:47:21.687Z,99363.45
2018-03-08T23:49:47.762Z,99368.15
2018-03-08T23:52:13.858Z,99374.55
2018-03-08T23:54:39.925Z,99376.28
2018-03-08T23:57:06.211Z,99374.51
2018-03-08T23:59:32.236Z,99383.94
